Time;durP1;ratioP1;P1;durP2;ratioP2;P2;SDS_P1;SDS_P2;PMS_P1;PMS_P2;Temp;Humidity;BMP_temperature;BMP_pressure;BME280_temperature;BME280_humidity;BME280_pressure;Samples;Min_cycle;Max_cycle;Signal;HPM_P1;HPM_P2
2022/03/16 00:01:06;;;;;;;10.75;6.25;;;6.00;99.90;;;;;;4946998;28;20146;-78
2022/03/16 00:03:32;;;;;;;8.40;7.65;;;6.00;99.90;;;;;;4947040;28;20102;-78
2022/03/16 00:05:57;;;;;;;9.95;7.70;;;5.90;99.90;;;;;;4945500;28;20047;-78
2022/03/16 00:08:23;;;;;;;9.05;7.82;;;5.90;99.90;;;;;;4946501;28;20047;-78
2022/03/16 00:10:49;;;;;;;9.15;8.30;;;5.90;99.90;;;;;;4945173;28;20051;-78
2022/03/16 00:13:14;;;;;;;13.77;8.48;;;5.90;99.90;;;;;;4946056;28;20508;-76
2022/03/16 00:15:40;;;;;;;6.80;6.20;;;5.90;99.90;;;;;;4945490;29;20040;-78
2022/03/16 00:18:05;;;;;;;8.73;7.35;;;5.90;99.90;;;;;;4945743;28;20047;-78
2022/03/16 00:20:31;;;;;;;8.70;7.85;;;5.80;99.90;;;;;;4946573;28;20051;-78
2022/03/16 00:22:56;;;;;;;17.92;7.75;;;5.80;99.90;;;;;;4946704;28;20051;-79
2022/03/16 00:25:23;;;;;;;8.52;7.75;;;5.80;99.90;;;;;;4945555;28;20054;-78
2022/03/16 00:27:49;;;;;;;15.25;8.27;;;5.80;99.90;;;;;;4945485;29;20114;-78
2022/03/16 00:30:15;;;;;;;8.82;7.63;;;5.80;99.90;;;;;;4946455;28;20684;-78
2022/03/16 00:32:40;;;;;;;11.38;7.30;;;5.80;99.90;;;;;;4946765;28;20533;-78
2022/03/16 00:35:06;;;;;;;11.88;9.50;;;5.80;99.90;;;;;;4946305;28;20062;-78
2022/03/16 00:37:32;;;;;;;11.88;8.32;;;5.80;99.90;;;;;;4944975;28;20039;-78
2022/03/16 00:39:58;;;;;;;9.90;8.90;;;5.80;99.90;;;;;;4944927;28;20051;-78
2022/03/16 00:42:24;;;;;;;8.63;7.50;;;5.80;99.90;;;;;;4946520;28;20058;-79
2022/03/16 00:44:49;;;;;;;8.40;7.43;;;5.80;99.90;;;;;;4945800;28;20494;-78
2022/03/16 00:47:15;;;;;;;15.65;12.63;;;5.80;99.90;;;;;;4946265;28;20078;-78
2022/03/16 00:49:40;;;;;;;11.20;8.48;;;5.70;99.90;;;;;;4946668;28;20045;-78
2022/03/16 00:52:06;;;;;;;14.80;8.82;;;5.70;99.90;;;;;;4945986;28;20032;-78
2022/03/16 00:54:32;;;;;;;6.22;5.55;;;5.70;99.90;;;;;;4960206;28;20126;-78
2022/03/16 00:56:57;;;;;;;19.67;9.35;;;5.70;99.90;;;;;;4945841;28;20039;-78
2022/03/16 00:59:23;;;;;;;8.80;7.88;;;5.70;99.90;;;;;;4946080;28;20075;-78
2022/03/16 01:01:48;;;;;;;8.65;7.93;;;5.60;99.90;;;;;;4945715;28;20160;-78
2022/03/16 01:04:14;;;;;;;11.18;9.30;;;5.60;99.90;;;;;;4945890;28;20043;-76
2022/03/16 01:06:40;;;;;;;7.85;7.25;;;5.60;99.90;;;;;;4946303;28;20864;-78
2022/03/16 01:09:05;;;;;;;8.30;7.40;;;5.60;99.90;;;;;;4944989;28;20043;-78
2022/03/16 01:11:31;;;;;;;12.43;9.07;;;5.50;99.90;;;;;;4928705;29;20445;-78
2022/03/16 01:13:57;;;;;;;10.93;8.68;;;5.60;99.90;;;;;;4945690;28;20051;-78
2022/03/16 01:16:23;;;;;;;9.20;8.05;;;5.50;99.90;;;;;;4945892;28;20597;-78
2022/03/16 01:18:49;;;;;;;13.13;9.20;;;5.50;99.90;;;;;;4945583;28;20517;-78
2022/03/16 01:21:14;;;;;;;20.83;8.98;;;5.50;99.90;;;;;;4944625;29;20046;-76
2022/03/16 01:23:40;;;;;;;12.82;8.50;;;5.50;99.90;;;;;;4945245;28;20035;-78
2022/03/16 01:26:06;;;;;;;9.10;8.07;;;5.50;99.90;;;;;;4944038;29;20043;-78
2022/03/16 01:28:32;;;;;;;12.27;9.52;;;5.50;99.90;;;;;;4943692;28;20039;-78
2022/03/16 01:31:00;;;;;;;10.20;9.18;;;5.50;99.90;;;;;;4925797;29;20086;-78
2022/03/16 01:33:25;;;;;;;9.70;8.85;;;5.50;99.90;;;;;;4926695;29;20082;-78
2022/03/16 01:35:51;;;;;;;10.15;9.15;;;5.50;99.90;;;;;;4926084;29;20821;-79
2022/03/16 01:38:16;;;;;;;17.52;9.88;;;5.50;99.90;;;;;;4925362;29;20044;-79
2022/03/16 01:40:42;;;;;;;9.05;8.15;;;5.50;99.90;;;;;;4926561;29;20054;-78
2022/03/16 01:43:07;;;;;;;17.90;8.45;;;5.50;99.90;;;;;;4925748;29;20057;-78
2022/03/16 01:45:33;;;;;;;9.53;8.40;;;5.40;99.90;;;;;;4938333;29;20043;-78
2022/03/16 01:47:59;;;;;;;9.60;8.70;;;5.40;99.90;;;;;;4944829;28;20501;-78
2022/03/16 01:50:24;;;;;;;11.75;10.20;;;5.50;99.90;;;;;;4944983;28;20130;-78
2022/03/16 01:52:50;;;;;;;10.55;9.48;;;5.50;99.90;;;;;;4944102;28;20137;-78
2022/03/16 01:55:16;;;;;;;11.43;9.63;;;5.40;99.90;;;;;;4945146;28;20066;-78
2022/03/16 01:57:47;;;;;;;10.80;10.00;;;5.40;99.90;;;;;;4944876;28;20538;-78
2022/03/16 02:00:13;;;;;;;11.83;10.63;;;5.40;99.90;;;;;;4924353;29;20102;-78
2022/03/16 02:02:38;;;;;;;10.25;9.20;;;5.40;99.90;;;;;;4924397;29;20057;-78
2022/03/16 02:05:05;;;;;;;17.33;9.23;;;5.40;99.90;;;;;;4925561;29;20929;-78
2022/03/16 02:07:31;;;;;;;15.27;10.38;;;5.40;99.90;;;;;;4925968;29;20044;-78
2022/03/16 02:10:00;;;;;;;21.27;11.15;;;5.40;99.90;;;;;;4923324;29;20138;-78
2022/03/16 02:12:25;;;;;;;21.58;11.48;;;5.40;99.90;;;;;;4926081;29;20055;-78
2022/03/16 02:14:51;;;;;;;11.20;9.93;;;5.40;99.90;;;;;;4925414;29;20482;-79
2022/03/16 02:17:16;;;;;;;11.73;9.05;;;5.40;99.90;;;;;;4926845;29;20051;-78
2022/03/16 02:19:42;;;;;;;15.18;8.45;;;5.50;99.90;;;;;;4925730;29;20067;-78
2022/03/16 02:22:13;;;;;;;14.30;12.40;;;5.40;99.90;;;;;;4934980;29;20406;-78
2022/03/16 02:24:39;;;;;;;13.82;9.25;;;5.40;99.90;;;;;;4942551;29;20608;-78
2022/03/16 02:27:04;;;;;;;17.95;10.52;;;5.40;99.90;;;;;;4944487;28;20047;-78
2022/03/16 02:29:31;;;;;;;9.68;8.77;;;5.40;99.90;;;;;;4944119;28;20043;-78
2022/03/16 02:31:56;;;;;;;18.85;12.32;;;5.40;99.90;;;;;;4959440;28;20164;-78
2022/03/16 02:34:22;;;;;;;20.15;12.32;;;5.40;99.90;;;;;;4944552;28;20070;-78
2022/03/16 02:36:47;;;;;;;9.88;8.88;;;5.30;99.90;;;;;;4944487;28;20145;-78
2022/03/16 02:39:13;;;;;;;15.27;13.83;;;5.40;99.90;;;;;;4943804;28;20458;-78
2022/03/16 02:41:39;;;;;;;10.85;9.73;;;5.40;99.90;;;;;;4944824;28;20397;-78
2022/03/16 02:44:04;;;;;;;11.05;9.50;;;5.30;99.90;;;;;;4942536;29;20498;-78
2022/03/16 02:46:30;;;;;;;12.07;9.77;;;5.30;99.90;;;;;;4944975;28;20047;-78
2022/03/16 02:48:56;;;;;;;14.43;10.32;;;5.30;99.90;;;;;;4943540;28;20055;-78
2022/03/16 02:51:21;;;;;;;12.32;9.48;;;5.30;99.90;;;;;;4939521;28;20387;-78
2022/03/16 02:53:47;;;;;;;10.95;9.85;;;5.20;99.90;;;;;;4923111;29;20384;-78
2022/03/16 02:56:12;;;;;;;15.68;10.65;;;5.20;99.90;;;;;;4926880;29;20066;-78
2022/03/16 02:58:38;;;;;;;10.87;9.80;;;5.20;99.90;;;;;;4929038;29;20051;-78
2022/03/16 03:01:04;;;;;;;10.13;8.85;;;5.20;99.90;;;;;;4927654;29;20689;-78
2022/03/16 03:03:29;;;;;;;12.10;8.73;;;5.20;99.90;;;;;;4927659;29;20059;-78
2022/03/16 03:05:55;;;;;;;26.90;11.07;;;5.10;99.90;;;;;;4928791;29;20143;-78
2022/03/16 03:08:21;;;;;;;12.20;10.10;;;5.10;99.90;;;;;;4928011;29;20082;-78
2022/03/16 03:10:48;;;;;;;13.55;12.27;;;5.10;99.90;;;;;;4928365;29;20043;-79
2022/03/16 03:13:14;;;;;;;12.60;9.77;;;5.00;99.90;;;;;;4929415;29;20047;-78
2022/03/16 03:15:39;;;;;;;10.13;9.10;;;5.00;99.90;;;;;;4929032;29;20502;-78
2022/03/16 03:18:05;;;;;;;10.85;9.93;;;5.10;99.90;;;;;;4927488;29;20109;-78
2022/03/16 03:20:30;;;;;;;12.30;8.37;;;5.00;99.90;;;;;;4946634;28;20071;-78
2022/03/16 03:22:56;;;;;;;13.17;9.77;;;5.00;99.90;;;;;;4945372;28;20532;-78
2022/03/16 03:25:22;;;;;;;11.87;9.07;;;5.00;99.90;;;;;;4947851;28;20050;-78
2022/03/16 03:27:47;;;;;;;13.70;10.80;;;5.00;99.90;;;;;;4947435;28;20047;-78
2022/03/16 03:30:13;;;;;;;10.13;9.20;;;5.00;99.90;;;;;;4941855;28;20042;-78
2022/03/16 03:32:39;;;;;;;12.33;10.83;;;5.00;99.90;;;;;;4948062;28;20039;-78
2022/03/16 03:35:06;;;;;;;12.10;9.97;;;4.90;99.90;;;;;;4929696;29;20263;-78
2022/03/16 03:37:32;;;;;;;11.60;8.97;;;4.90;99.90;;;;;;4947077;28;20047;-78
2022/03/16 03:39:58;;;;;;;13.67;10.40;;;5.00;99.90;;;;;;4932749;28;20050;-78
2022/03/16 03:42:23;;;;;;;11.37;10.20;;;4.90;99.90;;;;;;4928766;29;20048;-78
2022/03/16 03:44:49;;;;;;;11.40;10.27;;;4.90;99.90;;;;;;4934434;29;20043;-78
2022/03/16 03:47:16;;;;;;;15.80;10.37;;;4.90;99.90;;;;;;4946405;29;20510;-78
2022/03/16 03:49:42;;;;;;;11.23;10.10;;;4.90;99.90;;;;;;4946675;28;20069;-78
2022/03/16 03:52:09;;;;;;;10.40;9.50;;;4.90;99.90;;;;;;4947200;28;20050;-78
2022/03/16 03:54:34;;;;;;;12.90;10.13;;;4.90;99.90;;;;;;4944945;29;20408;-78
2022/03/16 03:57:01;;;;;;;11.37;8.97;;;4.80;99.90;;;;;;4947184;28;20051;-78
2022/03/16 03:59:26;;;;;;;12.57;7.60;;;4.80;99.90;;;;;;4935811;29;20055;-78
2022/03/16 04:01:52;;;;;;;12.10;8.37;;;4.80;99.90;;;;;;4926671;29;20510;-78
2022/03/16 04:04:18;;;;;;;17.40;12.10;;;4.80;99.90;;;;;;4927943;29;20048;-78
2022/03/16 04:06:44;;;;;;;10.47;9.37;;;4.80;99.90;;;;;;4927719;29;20055;-78
2022/03/16 04:09:10;;;;;;;11.00;9.87;;;4.70;99.90;;;;;;4932526;29;20043;-78
2022/03/16 04:11:36;;;;;;;13.23;8.00;;;4.70;99.90;;;;;;4947269;28;20047;-78
2022/03/16 04:14:02;;;;;;;15.70;10.73;;;4.70;99.90;;;;;;4932987;28;20402;-78
2022/03/16 04:16:27;;;;;;;12.13;8.67;;;4.70;99.90;;;;;;4927958;29;20130;-78
2022/03/16 04:18:53;;;;;;;12.40;9.60;;;4.70;99.90;;;;;;4928274;29;20542;-78
2022/03/16 04:21:19;;;;;;;14.80;12.07;;;4.70;99.90;;;;;;4926459;29;20099;-78
2022/03/16 04:23:44;;;;;;;11.07;6.97;;;4.60;99.90;;;;;;4927005;29;20052;-75
2022/03/16 04:26:10;;;;;;;10.50;8.20;;;4.70;99.90;;;;;;4930511;29;20043;-78
2022/03/16 04:28:35;;;;;;;9.13;8.33;;;4.60;99.90;;;;;;4945016;28;20122;-78
2022/03/16 04:31:01;;;;;;;13.43;10.33;;;4.60;99.90;;;;;;4925822;29;20043;-78
2022/03/16 04:33:27;;;;;;;11.37;10.20;;;4.60;99.90;;;;;;4927675;29;20059;-78
2022/03/16 04:35:53;;;;;;;9.13;8.03;;;4.60;99.90;;;;;;4927021;29;20079;-78
2022/03/16 04:38:19;;;;;;;8.67;7.87;;;4.60;99.90;;;;;;4926890;29;20048;-78
2022/03/16 04:40:45;;;;;;;12.83;9.10;;;4.60;99.90;;;;;;4945158;28;20766;-78
2022/03/16 04:43:11;;;;;;;10.37;8.57;;;4.60;99.90;;;;;;4947352;28;20051;-78
2022/03/16 04:45:38;;;;;;;9.10;8.03;;;4.60;99.90;;;;;;4945764;28;20043;-78
2022/03/16 04:48:08;;;;;;;9.47;8.40;;;4.60;99.90;;;;;;4927162;29;20581;-78
2022/03/16 04:50:35;;;;;;;13.87;12.73;;;4.70;99.90;;;;;;4942426;29;20537;-78
2022/03/16 04:53:01;;;;;;;11.17;9.67;;;4.70;99.90;;;;;;4945272;28;20095;-78
2022/03/16 04:55:26;;;;;;;11.05;8.63;;;4.70;99.90;;;;;;4946500;28;20502;-78
2022/03/16 04:57:52;;;;;;;11.37;10.50;;;4.70;99.90;;;;;;4944767;29;20062;-78
2022/03/16 05:00:17;;;;;;;22.57;11.47;;;4.70;99.90;;;;;;4931564;28;20039;-78
2022/03/16 05:02:43;;;;;;;12.27;10.60;;;4.70;99.90;;;;;;4926206;29;20056;-78
2022/03/16 05:05:10;;;;;;;14.93;10.90;;;4.70;99.90;;;;;;4926397;29;20078;-78
2022/03/16 05:07:39;;;;;;;11.47;10.47;;;4.80;99.90;;;;;;4926034;29;20499;-78
2022/03/16 05:10:06;;;;;;;10.67;9.77;;;4.80;99.90;;;;;;4938760;28;20208;-78
2022/03/16 05:12:39;;;;;;;11.27;10.10;;;4.80;99.90;;;;;;4945726;28;20039;-78
2022/03/16 05:15:07;;;;;;;15.77;9.80;;;4.80;99.90;;;;;;4945501;28;20422;-78
2022/03/16 05:17:33;;;;;;;8.93;8.13;;;4.80;99.90;;;;;;4945592;28;20126;-78
2022/03/16 05:19:58;;;;;;;11.83;10.60;;;4.90;99.90;;;;;;4931649;28;20104;-78
2022/03/16 05:22:24;;;;;;;13.03;9.07;;;4.90;99.90;;;;;;4925886;29;20141;-78
2022/03/16 05:24:50;;;;;;;11.23;10.13;;;4.90;99.90;;;;;;4926402;29;20086;-78
2022/03/16 05:27:19;;;;;;;11.10;9.77;;;4.90;99.90;;;;;;4926951;29;20051;-78
2022/03/16 05:29:45;;;;;;;14.47;11.20;;;4.90;99.90;;;;;;4927136;29;20051;-77
2022/03/16 05:32:10;;;;;;;17.37;9.47;;;4.90;99.90;;;;;;4926766;29;20048;-78
2022/03/16 05:34:36;;;;;;;11.87;8.53;;;5.00;99.90;;;;;;4926466;29;20144;-78
2022/03/16 05:37:01;;;;;;;11.33;10.30;;;5.00;99.90;;;;;;4925916;29;20055;-78
2022/03/16 05:39:27;;;;;;;11.83;9.50;;;4.90;99.90;;;;;;4926255;29;20040;-78
2022/03/16 05:41:52;;;;;;;11.47;10.37;;;4.90;99.90;;;;;;4925937;29;20047;-79
2022/03/16 05:44:18;;;;;;;14.80;10.67;;;4.90;99.90;;;;;;4927280;29;20645;-78
2022/03/16 05:46:43;;;;;;;10.93;9.83;;;4.90;99.90;;;;;;4945614;28;20505;-78
2022/03/16 05:49:09;;;;;;;11.23;8.88;;;4.90;99.90;;;;;;4940794;28;20415;-78
2022/03/16 05:51:34;;;;;;;12.30;11.20;;;4.90;99.90;;;;;;4938588;29;20528;-78
2022/03/16 05:54:00;;;;;;;14.57;12.70;;;4.90;99.90;;;;;;4943951;28;20122;-80
2022/03/16 05:56:26;;;;;;;10.00;9.13;;;4.90;99.90;;;;;;4943882;28;20115;-78
2022/03/16 05:58:51;;;;;;;12.97;9.37;;;4.90;99.90;;;;;;4943835;28;20055;-78
2022/03/16 06:01:17;;;;;;;15.53;11.13;;;4.90;99.90;;;;;;4931537;29;20039;-79
2022/03/16 06:03:43;;;;;;;10.43;9.53;;;4.90;99.90;;;;;;4936122;28;20410;-78
2022/03/16 06:06:08;;;;;;;12.93;10.93;;;4.80;99.90;;;;;;4925482;29;20051;-78
2022/03/16 06:08:34;;;;;;;10.50;8.97;;;4.80;99.90;;;;;;4924853;29;20052;-78
2022/03/16 06:10:59;;;;;;;20.97;10.80;;;4.90;99.90;;;;;;4925558;29;20047;-78
2022/03/16 06:13:25;;;;;;;12.33;10.50;;;4.90;99.90;;;;;;4930380;29;20409;-78
2022/03/16 06:15:51;;;;;;;11.03;9.90;;;4.90;99.90;;;;;;4954187;28;20572;-78
2022/03/16 06:18:16;;;;;;;12.83;11.53;;;4.90;99.90;;;;;;4962151;28;20224;-78
2022/03/16 06:20:42;;;;;;;10.17;8.77;;;4.80;99.90;;;;;;4954530;28;20081;-77
2022/03/16 06:23:08;;;;;;;14.53;10.87;;;4.80;99.90;;;;;;4961759;28;20065;-77
2022/03/16 06:25:35;;;;;;;14.03;12.60;;;4.90;99.90;;;;;;4959817;28;20042;-78
2022/03/16 06:28:01;;;;;;;14.40;11.27;;;4.90;99.90;;;;;;4933026;28;20101;-78
2022/03/16 06:30:27;;;;;;;9.50;7.90;;;4.90;99.90;;;;;;4945476;28;20039;-83
2022/03/16 06:32:52;;;;;;;19.57;11.43;;;4.90;99.90;;;;;;4943678;28;20508;-83
2022/03/16 06:35:18;;;;;;;11.97;10.77;;;4.90;99.90;;;;;;4944256;28;20094;-78
2022/03/16 06:37:45;;;;;;;13.97;11.60;;;4.90;99.90;;;;;;4942869;28;20054;-78
2022/03/16 06:40:11;;;;;;;11.93;10.30;;;5.00;99.90;;;;;;4943834;29;20043;-83
2022/03/16 06:42:54;;;;;;;15.60;9.77;;;5.00;99.90;;;;;;4937373;28;20071;-82
2022/03/16 06:45:21;;;;;;;13.37;10.57;;;5.00;99.90;;;;;;4925658;28;21271;-82
2022/03/16 06:47:47;;;;;;;9.20;8.40;;;5.00;99.90;;;;;;4933782;28;20463;-82
2022/03/16 06:50:13;;;;;;;13.73;11.37;;;5.00;99.90;;;;;;4928627;28;20414;-80
2022/03/16 06:52:39;;;;;;;15.87;13.23;;;5.00;99.90;;;;;;4933445;29;20061;-82
2022/03/16 06:55:06;;;;;;;15.40;13.80;;;5.10;99.90;;;;;;4942625;29;20047;-81
2022/03/16 06:57:32;;;;;;;11.88;9.52;;;5.10;99.90;;;;;;4931298;28;20247;-80
2022/03/16 06:59:58;;;;;;;13.33;9.53;;;5.10;99.90;;;;;;4942793;28;20046;-79
2022/03/16 07:02:23;;;;;;;14.73;10.30;;;5.20;99.90;;;;;;4941129;28;20777;-75
2022/03/16 07:04:49;;;;;;;10.57;9.40;;;5.20;99.90;;;;;;4937688;28;20039;-76
2022/03/16 07:07:14;;;;;;;11.17;10.00;;;5.30;99.90;;;;;;4943200;28;20051;-74
2022/03/16 07:09:40;;;;;;;19.93;10.47;;;5.30;99.90;;;;;;4942948;28;20457;-75
2022/03/16 07:12:06;;;;;;;8.90;8.20;;;5.30;99.90;;;;;;4944083;28;20101;-75
2022/03/16 07:14:32;;;;;;;11.27;10.20;;;5.30;99.90;;;;;;4943047;29;20050;-75
2022/03/16 07:16:58;;;;;;;15.05;12.40;;;5.40;99.90;;;;;;4944464;28;20047;-75
2022/03/16 07:19:24;;;;;;;13.77;12.43;;;5.40;99.90;;;;;;4926189;28;20078;-75
2022/03/16 07:21:49;;;;;;;17.50;11.43;;;5.50;99.90;;;;;;4925083;29;20087;-75
2022/03/16 07:24:15;;;;;;;12.03;10.87;;;5.50;99.90;;;;;;4939145;28;20482;-75
2022/03/16 07:26:40;;;;;;;18.77;11.50;;;5.50;99.90;;;;;;4944566;28;20047;-75
2022/03/16 07:29:06;;;;;;;11.70;9.43;;;5.50;99.90;;;;;;4938164;28;20054;-73
2022/03/16 07:31:32;;;;;;;13.50;12.07;;;5.50;99.90;;;;;;4942685;28;20410;-74
2022/03/16 07:33:58;;;;;;;14.82;11.13;;;5.50;99.90;;;;;;4924535;29;20589;-73
2022/03/16 07:36:24;;;;;;;14.13;12.85;;;5.50;99.90;;;;;;4924124;29;20036;-73
2022/03/16 07:38:49;;;;;;;13.70;12.40;;;5.50;99.90;;;;;;4922690;29;20043;-73
2022/03/16 07:41:15;;;;;;;14.20;12.82;;;5.60;99.90;;;;;;4923642;29;20044;-73
2022/03/16 07:43:41;;;;;;;10.90;9.93;;;5.60;99.90;;;;;;4927005;29;20181;-73
2022/03/16 07:46:07;;;;;;;13.45;11.30;;;5.70;99.90;;;;;;4944064;29;20050;-73
2022/03/16 07:48:34;;;;;;;11.97;10.97;;;5.70;99.90;;;;;;4945102;29;20039;-73
2022/03/16 07:51:01;;;;;;;12.30;11.05;;;5.70;99.90;;;;;;4946178;28;20142;-74
2022/03/16 07:53:27;;;;;;;14.95;11.18;;;5.80;99.90;;;;;;4945592;28;20078;-73
2022/03/16 07:55:56;;;;;;;15.25;13.88;;;5.80;99.90;;;;;;4946230;28;20145;-73
2022/03/16 07:58:22;;;;;;;14.70;10.15;;;5.90;99.90;;;;;;4945758;28;20043;-73
2022/03/16 08:00:48;;;;;;;11.00;9.95;;;5.90;99.90;;;;;;4946180;28;20050;-73
2022/03/16 08:03:13;;;;;;;12.43;11.40;;;6.00;99.90;;;;;;4946032;28;20059;-73
2022/03/16 08:05:39;;;;;;;12.80;11.57;;;6.00;99.90;;;;;;4946602;28;20051;-74
2022/03/16 08:08:05;;;;;;;16.52;14.10;;;6.10;99.90;;;;;;4944877;28;20043;-73
2022/03/16 08:10:31;;;;;;;17.48;14.13;;;6.20;99.90;;;;;;4944946;28;20051;-73
2022/03/16 08:12:57;;;;;;;13.25;12.15;;;6.20;99.90;;;;;;4945895;28;20126;-73
2022/03/16 08:15:23;;;;;;;18.15;13.45;;;6.30;99.90;;;;;;4945800;28;20074;-73
2022/03/16 08:17:48;;;;;;;17.95;14.18;;;6.30;99.90;;;;;;4945639;28;20137;-73
2022/03/16 08:20:14;;;;;;;14.23;12.85;;;6.30;99.90;;;;;;4946273;28;20188;-73
2022/03/16 08:22:39;;;;;;;14.05;12.77;;;6.40;99.90;;;;;;4943466;29;20478;-74
2022/03/16 08:25:07;;;;;;;24.63;13.82;;;6.40;99.90;;;;;;4945737;28;20479;-73
2022/03/16 08:27:34;;;;;;;14.88;11.00;;;6.50;99.90;;;;;;4944245;29;20055;-73
2022/03/16 08:30:00;;;;;;;15.93;14.20;;;6.50;99.90;;;;;;4945535;28;20051;-73
2022/03/16 08:32:26;;;;;;;14.75;13.45;;;6.60;99.90;;;;;;4945951;28;20077;-74
2022/03/16 08:34:52;;;;;;;13.73;12.43;;;6.70;99.90;;;;;;4944992;28;20043;-74
2022/03/16 08:37:18;;;;;;;12.93;11.77;;;6.70;99.90;;;;;;4944719;28;20506;-73
2022/03/16 08:39:44;;;;;;;14.88;13.55;;;6.80;99.90;;;;;;4945263;28;20039;-74
2022/03/16 08:42:11;;;;;;;11.52;10.55;;;6.80;99.90;;;;;;4946223;28;20082;-74
2022/03/16 08:44:37;;;;;;;15.05;13.60;;;6.90;99.90;;;;;;4945195;28;20031;-73
2022/03/16 08:47:03;;;;;;;13.43;12.05;;;6.90;99.90;;;;;;4945532;29;20054;-74
2022/03/16 08:49:29;;;;;;;9.95;9.00;;;6.90;99.90;;;;;;4944835;28;20494;-73
2022/03/16 08:51:57;;;;;;;9.93;9.10;;;7.00;99.90;;;;;;4944304;29;20048;-74
2022/03/16 08:54:23;;;;;;;11.40;10.40;;;7.00;99.90;;;;;;4944758;28;20106;-74
2022/03/16 08:56:48;;;;;;;16.23;11.07;;;7.10;99.90;;;;;;4945357;28;20047;-73
2022/03/16 08:59:14;;;;;;;11.82;9.18;;;7.10;99.90;;;;;;4945315;28;20141;-74
2022/03/16 09:01:40;;;;;;;10.88;9.88;;;7.20;99.90;;;;;;4945798;28;20047;-73
2022/03/16 09:04:06;;;;;;;8.98;8.27;;;7.20;99.90;;;;;;4944239;29;20039;-73
2022/03/16 09:06:31;;;;;;;10.50;7.57;;;7.20;99.90;;;;;;4945550;28;20082;-74
2022/03/16 09:08:57;;;;;;;8.02;7.28;;;7.30;99.90;;;;;;4943287;28;20067;-73
2022/03/16 09:11:23;;;;;;;11.57;10.32;;;7.30;99.90;;;;;;4944218;28;20046;-73
2022/03/16 09:13:48;;;;;;;11.38;10.45;;;7.40;99.90;;;;;;4944205;28;20050;-73
2022/03/16 09:16:14;;;;;;;9.95;9.00;;;7.40;99.90;;;;;;4945349;29;20078;-73
2022/03/16 09:18:41;;;;;;;9.70;8.77;;;7.40;99.90;;;;;;4945054;28;20047;-73
2022/03/16 09:21:07;;;;;;;9.20;7.15;;;7.50;99.90;;;;;;4944352;28;20122;-73
2022/03/16 09:23:32;;;;;;;8.13;7.30;;;7.60;99.90;;;;;;4943709;28;20046;-74
2022/03/16 09:25:59;;;;;;;9.13;6.63;;;7.60;99.90;;;;;;4945009;28;20047;-73
2022/03/16 09:28:25;;;;;;;8.30;7.60;;;7.70;99.90;;;;;;4942937;29;20043;-73
2022/03/16 09:30:50;;;;;;;8.75;7.93;;;7.70;99.90;;;;;;4944791;28;20483;-74
2022/03/16 09:33:17;;;;;;;9.45;8.25;;;7.80;99.90;;;;;;4943099;29;20062;-73
2022/03/16 09:35:44;;;;;;;7.05;6.32;;;7.90;99.90;;;;;;4943974;28;20490;-74
2022/03/16 09:38:10;;;;;;;8.95;7.13;;;7.90;99.90;;;;;;4942650;28;20058;-73
2022/03/16 09:40:36;;;;;;;9.85;7.00;;;8.00;99.90;;;;;;4942782;28;20043;-74
2022/03/16 09:43:08;;;;;;;8.85;8.02;;;8.10;99.90;;;;;;4944371;28;20047;-74
2022/03/16 09:45:52;;;;;;;8.30;7.50;;;8.10;99.90;;;;;;4943919;28;20368;-74
2022/03/16 09:48:21;;;;;;;12.20;9.15;;;8.20;99.90;;;;;;4943911;28;20186;-73
2022/03/16 09:50:47;;;;;;;9.40;8.52;;;8.30;99.90;;;;;;4944068;28;20490;-73
2022/03/16 09:53:15;;;;;;;10.93;9.82;;;8.30;99.90;;;;;;4943513;28;20072;-74
2022/03/16 09:55:41;;;;;;;6.95;5.57;;;8.40;99.90;;;;;;4944693;28;20046;-73
2022/03/16 09:58:06;;;;;;;6.25;5.57;;;8.40;99.90;;;;;;4943901;28;20336;-74
2022/03/16 10:00:33;;;;;;;11.52;7.45;;;8.50;99.90;;;;;;4942728;28;20490;-74
2022/03/16 10:03:02;;;;;;;7.20;6.00;;;8.60;99.90;;;;;;4943307;28;20291;-73
2022/03/16 10:05:28;;;;;;;7.63;6.90;;;8.60;99.90;;;;;;4943176;28;20043;-74
2022/03/16 10:07:54;;;;;;;11.15;7.70;;;8.70;99.90;;;;;;4943003;28;20050;-74
2022/03/16 10:13:23;;;;;;;7.78;6.68;;;8.80;99.90;;;;;;4942220;29;20078;-74
2022/03/16 10:15:53;;;;;;;9.82;7.57;;;8.90;99.90;;;;;;4944433;28;20051;-73
2022/03/16 10:18:24;;;;;;;10.73;5.55;;;9.00;99.90;;;;;;4924362;29;20118;-74
2022/03/16 10:20:52;;;;;;;10.02;4.60;;;9.00;99.90;;;;;;4925456;29;20047;-78
2022/03/16 10:23:24;;;;;;;8.05;6.05;;;9.10;99.90;;;;;;4923879;29;20048;-74
2022/03/16 10:25:55;;;;;;;5.38;4.85;;;9.20;99.90;;;;;;4927780;29;20111;-74
2022/03/16 10:28:29;;;;;;;11.93;5.70;;;9.20;99.90;;;;;;4943712;28;20050;-75
2022/03/16 10:31:06;;;;;;;8.27;5.88;;;9.30;99.90;;;;;;4945837;28;20043;-75
2022/03/16 10:33:43;;;;;;;9.43;5.97;;;9.30;99.90;;;;;;4925489;29;20036;-74
2022/03/16 10:36:13;;;;;;;7.97;5.95;;;9.40;99.90;;;;;;4926053;29;20047;-75
2022/03/16 10:38:44;;;;;;;6.70;4.88;;;9.40;99.90;;;;;;4923301;29;20417;-74
2022/03/16 10:41:12;;;;;;;6.10;5.28;;;9.50;99.90;;;;;;4925555;29;20044;-74
2022/03/16 10:46:40;;;;;;;8.45;5.70;;;9.60;99.90;;;;;;4928612;28;20074;-86
2022/03/16 10:49:09;;;;;;;10.35;6.05;;;9.60;99.90;;;;;;4940365;28;20051;-77
2022/03/16 10:51:36;;;;;;;9.13;4.57;;;9.70;99.90;;;;;;4935119;28;20052;-78
2022/03/16 10:54:03;;;;;;;4.97;3.78;;;9.70;99.90;;;;;;4930202;28;20058;-79
2022/03/16 10:56:30;;;;;;;11.73;5.68;;;9.70;99.90;;;;;;4940326;28;20139;-78
2022/03/16 10:58:57;;;;;;;10.07;5.68;;;9.70;99.90;;;;;;4934699;28;20039;-78
2022/03/16 11:01:25;;;;;;;3.88;3.53;;;9.90;99.90;;;;;;4961294;28;20051;-78
2022/03/16 11:03:52;;;;;;;4.38;3.88;;;9.90;99.90;;;;;;4929478;29;20044;-79
2022/03/16 11:06:23;;;;;;;5.78;5.25;;;9.90;99.90;;;;;;4933685;28;20044;-76
2022/03/16 11:08:49;;;;;;;8.38;4.32;;;10.00;99.90;;;;;;4925778;29;20340;-79
2022/03/16 11:14:04;;;;;;;5.90;4.75;;;10.10;99.90;;;;;;4928975;29;20050;-80
2022/03/16 11:16:32;;;;;;;4.63;4.03;;;10.20;99.90;;;;;;4934719;29;20404;-79
2022/03/16 11:19:03;;;;;;;10.82;5.30;;;10.30;99.90;;;;;;4942852;29;20075;-78
2022/03/16 11:21:49;;;;;;;5.82;3.90;;;10.30;99.90;;;;;;4933244;28;20058;-79
2022/03/16 11:24:20;;;;;;;6.75;4.13;;;10.30;99.90;;;;;;4928772;29;20035;-76
2022/03/16 11:27:09;;;;;;;4.03;3.63;;;10.40;99.90;;;;;;4941468;28;20410;-79
2022/03/16 11:30:09;;;;;;;6.63;3.38;;;10.40;99.90;;;;;;4943614;28;20308;-79
2022/03/16 11:32:40;;;;;;;4.03;3.42;;;10.50;99.90;;;;;;4934818;28;20055;-79
2022/03/16 11:35:12;;;;;;;4.63;4.10;;;10.50;99.90;;;;;;4946667;28;20127;-80
2022/03/16 11:37:49;;;;;;;6.28;3.90;;;10.60;99.90;;;;;;4939056;28;20341;-80
2022/03/16 11:40:20;;;;;;;4.85;4.05;;;10.60;99.90;;;;;;4926420;29;20043;-78
2022/03/16 11:43:22;;;;;;;7.72;4.78;;;10.60;99.90;;;;;;4926338;29;20217;-80
2022/03/16 11:45:57;;;;;;;5.63;4.90;;;10.70;99.90;;;;;;4931116;28;20150;-78
2022/03/16 11:48:31;;;;;;;6.95;4.57;;;10.60;99.90;;;;;;4936813;28;20036;-82
2022/03/16 11:51:08;;;;;;;6.25;4.35;;;10.70;99.90;;;;;;4944376;28;20044;-76
2022/03/16 11:53:46;;;;;;;3.28;2.97;;;10.70;99.90;;;;;;4941599;28;20301;-77
2022/03/16 11:56:24;;;;;;;5.63;4.68;;;10.70;99.90;;;;;;4943890;29;20750;-77
2022/03/16 11:58:52;;;;;;;5.68;3.90;;;10.70;99.90;;;;;;4943009;28;20097;-76
2022/03/16 12:01:21;;;;;;;6.05;3.78;;;10.80;99.90;;;;;;4947459;28;20051;-77
2022/03/16 12:03:46;;;;;;;4.18;3.88;;;10.80;99.90;;;;;;4944401;28;20141;-76
2022/03/16 12:06:12;;;;;;;5.43;3.50;;;10.90;99.90;;;;;;4945471;28;20051;-75
2022/03/16 12:09:04;;;;;;;8.25;3.67;;;10.80;99.90;;;;;;4945034;29;20039;-75
2022/03/16 12:14:57;;;;;;;;;;;10.90;99.90;;;;;;4944099;29;20043;-75
2022/03/16 12:17:23;;;;;;;4.68;4.22;;;10.90;99.90;;;;;;4945685;28;19977;-75
2022/03/16 12:20:10;;;;;;;5.35;3.15;;;10.90;99.90;;;;;;4945048;28;20404;-75
2022/03/16 12:22:53;;;;;;;13.88;3.63;;;11.00;99.90;;;;;;4944604;28;20200;-75
2022/03/16 12:25:26;;;;;;;5.22;3.42;;;11.00;99.90;;;;;;4944465;29;20517;-76
2022/03/16 12:31:12;;;;;;;2.85;2.63;;;11.10;99.90;;;;;;4945193;28;20765;-75
2022/03/16 12:33:42;;;;;;;;;;;11.10;99.90;;;;;;4946304;28;20466;-76
2022/03/16 12:36:13;;;;;;;4.10;3.35;;;11.10;99.90;;;;;;4943062;29;19970;-75
2022/03/16 12:38:47;;;;;;;4.07;3.08;;;11.10;99.90;;;;;;4944640;28;20461;-75
2022/03/16 12:44:02;;;;;;;3.80;2.70;;;11.20;99.90;;;;;;4944370;28;20074;-76
2022/03/16 12:46:36;;;;;;;4.20;3.45;;;11.20;99.90;;;;;;4943900;28;20066;-76
2022/03/16 12:49:12;;;;;;;4.32;3.55;;;11.30;99.90;;;;;;4941640;29;20079;-77
2022/03/16 12:51:45;;;;;;;6.63;4.38;;;11.20;99.90;;;;;;4943314;28;20043;-76
2022/03/16 12:54:12;;;;;;;2.53;2.33;;;11.30;99.90;;;;;;4945667;28;20051;-76
2022/03/16 12:56:50;;;;;;;4.25;2.05;;;11.30;99.90;;;;;;4945328;28;20114;-77
2022/03/16 12:59:21;;;;;;;3.38;3.08;;;11.30;99.90;;;;;;4945324;28;20053;-76
2022/03/16 13:01:47;;;;;;;6.00;4.57;;;11.40;99.90;;;;;;4943541;28;20173;-76
2022/03/16 13:04:16;;;;;;;2.85;2.42;;;11.40;99.90;;;;;;4945446;29;20122;-76